sensor_id;sensor_type;location;lat;lon;timestamp;pressure;altitude;pressure_sealevel;temperature;humidity
52249;BME280;38541;48.130;8.378;2023-02-21T00:01:19;93216.59;;;3.05;54.90
52249;BME280;38541;48.130;8.378;2023-02-21T00:04:04;93212.00;;;3.00;54.85
52249;BME280;38541;48.130;8.378;2023-02-21T00:06:49;93214.59;;;3.00;54.33
52249;BME280;38541;48.130;8.378;2023-02-21T00:09:33;93219.56;;;3.02;54.07
52249;BME280;38541;48.130;8.378;2023-02-21T00:12:18;93215.59;;;2.92;55.38
52249;BME280;38541;48.130;8.378;2023-02-21T00:15:03;93215.25;;;2.75;56.40
52249;BME280;38541;48.130;8.378;2023-02-21T00:17:49;93213.25;;;2.70;56.79
52249;BME280;38541;48.130;8.378;2023-02-21T00:20:33;93215.84;;;2.64;57.33
52249;BME280;38541;48.130;8.378;2023-02-21T00:23:18;93217.63;;;2.43;57.13
52249;BME280;38541;48.130;8.378;2023-02-21T00:26:03;93215.66;;;2.18;57.35
52249;BME280;38541;48.130;8.378;2023-02-21T00:28:48;93214.41;;;2.14;57.90
52249;BME280;38541;48.130;8.378;2023-02-21T00:31:34;93213.22;;;2.10;58.25
52249;BME280;38541;48.130;8.378;2023-02-21T00:34:18;93210.22;;;2.13;58.06
52249;BME280;38541;48.130;8.378;2023-02-21T00:37:03;93218.41;;;2.10;57.65
52249;BME280;38541;48.130;8.378;2023-02-21T00:39:48;93217.63;;;2.03;57.74
52249;BME280;38541;48.130;8.378;2023-02-21T00:42:33;93222.59;;;2.04;58.24
52249;BME280;38541;48.130;8.378;2023-02-21T00:45:18;93208.63;;;1.98;58.46
52249;BME280;38541;48.130;8.378;2023-02-21T00:48:03;93200.44;;;1.88;58.23
52249;BME280;38541;48.130;8.378;2023-02-21T00:50:48;93209.59;;;1.84;58.54
52249;BME280;38541;48.130;8.378;2023-02-21T00:53:33;93202.84;;;1.83;58.73
52249;BME280;38541;48.130;8.378;2023-02-21T00:56:18;93190.44;;;1.71;59.43
52249;BME280;38541;48.130;8.378;2023-02-21T00:59:03;93200.59;;;1.66;59.67
52249;BME280;38541;48.130;8.378;2023-02-21T01:01:48;93198.00;;;1.66;60.13
52249;BME280;38541;48.130;8.378;2023-02-21T01:04:32;93191.41;;;1.64;60.35
52249;BME280;38541;48.130;8.378;2023-02-21T01:07:17;93201.75;;;1.57;60.23
52249;BME280;38541;48.130;8.378;2023-02-21T01:10:05;93193.97;;;1.50;59.89
52249;BME280;38541;48.130;8.378;2023-02-21T01:12:50;93193.19;;;1.50;60.57
52249;BME280;38541;48.130;8.378;2023-02-21T01:15:35;93185.00;;;1.46;60.46
52249;BME280;38541;48.130;8.378;2023-02-21T01:18:20;93190.94;;;1.40;61.07
52249;BME280;38541;48.130;8.378;2023-02-21T01:21:05;93186.94;;;1.37;61.32
52249;BME280;38541;48.130;8.378;2023-02-21T01:23:51;93193.50;;;1.33;60.92
52249;BME280;38541;48.130;8.378;2023-02-21T01:26:36;93184.75;;;1.34;61.05
52249;BME280;38541;48.130;8.378;2023-02-21T01:29:22;93188.34;;;1.33;60.47
52249;BME280;38541;48.130;8.378;2023-02-21T01:32:07;93182.94;;;1.28;61.24
52249;BME280;38541;48.130;8.378;2023-02-21T01:34:52;93187.13;;;1.29;60.97
52249;BME280;38541;48.130;8.378;2023-02-21T01:37:39;93183.94;;;1.27;61.43
52249;BME280;38541;48.130;8.378;2023-02-21T01:40:24;93182.72;;;1.23;61.10
52249;BME280;38541;48.130;8.378;2023-02-21T01:43:20;93183.53;;;1.23;61.82
52249;BME280;38541;48.130;8.378;2023-02-21T01:46:08;93177.09;;;1.12;61.54
52249;BME280;38541;48.130;8.378;2023-02-21T01:48:56;93174.69;;;1.11;62.03
52249;BME280;38541;48.130;8.378;2023-02-21T01:51:43;93168.28;;;1.00;61.72
52249;BME280;38541;48.130;8.378;2023-02-21T01:54:37;93173.06;;;0.96;62.11
52249;BME280;38541;48.130;8.378;2023-02-21T01:57:24;93167.47;;;0.93;62.17
52249;BME280;38541;48.130;8.378;2023-02-21T02:00:12;93166.09;;;0.97;62.03
52249;BME280;38541;48.130;8.378;2023-02-21T02:02:58;93166.69;;;0.99;61.68
52249;BME280;38541;48.130;8.378;2023-02-21T02:05:48;93159.72;;;0.93;61.75
52249;BME280;38541;48.130;8.378;2023-02-21T02:08:33;93153.72;;;0.92;61.96
52249;BME280;38541;48.130;8.378;2023-02-21T02:17:30;93159.03;;;0.77;62.39
52249;BME280;38541;48.130;8.378;2023-02-21T02:28:46;93148.31;;;0.80;62.81
52249;BME280;38541;48.130;8.378;2023-02-21T02:34:39;93145.28;;;0.70;62.07
52249;BME280;38541;48.130;8.378;2023-02-21T02:40:36;93147.44;;;0.66;62.42
52249;BME280;38541;48.130;8.378;2023-02-21T02:43:15;93142.00;;;0.54;62.78
52249;BME280;38541;48.130;8.378;2023-02-21T02:45:45;93140.63;;;0.59;62.10
52249;BME280;38541;48.130;8.378;2023-02-21T02:48:22;93141.78;;;0.56;62.99
52249;BME280;38541;48.130;8.378;2023-02-21T02:50:53;93145.38;;;0.55;62.98
52249;BME280;38541;48.130;8.378;2023-02-21T02:53:25;93138.59;;;0.54;63.25
52249;BME280;38541;48.130;8.378;2023-02-21T02:58:26;93131.06;;;0.52;62.77
52249;BME280;38541;48.130;8.378;2023-02-21T03:03:49;93130.47;;;0.50;63.04
52249;BME280;38541;48.130;8.378;2023-02-21T03:09:24;93137.59;;;0.48;62.79
52249;BME280;38541;48.130;8.378;2023-02-21T03:12:04;93129.84;;;0.48;62.44
52249;BME280;38541;48.130;8.378;2023-02-21T03:15:00;93135.03;;;0.48;61.82
52249;BME280;38541;48.130;8.378;2023-02-21T03:17:30;93130.22;;;0.45;62.74
52249;BME280;38541;48.130;8.378;2023-02-21T03:19:58;93143.28;;;0.37;61.91
52249;BME280;38541;48.130;8.378;2023-02-21T03:22:28;93143.50;;;0.42;62.51
52249;BME280;38541;48.130;8.378;2023-02-21T03:24:58;93139.72;;;0.38;62.44
52249;BME280;38541;48.130;8.378;2023-02-21T03:27:26;93136.91;;;0.33;63.50
52249;BME280;38541;48.130;8.378;2023-02-21T03:30:05;93139.06;;;0.29;63.47
52249;BME280;38541;48.130;8.378;2023-02-21T03:32:38;93137.91;;;0.32;63.18
52249;BME280;38541;48.130;8.378;2023-02-21T03:35:06;93137.09;;;0.31;63.85
52249;BME280;38541;48.130;8.378;2023-02-21T03:37:35;93139.28;;;0.34;64.38
52249;BME280;38541;48.130;8.378;2023-02-21T03:40:09;93133.50;;;0.32;64.39
52249;BME280;38541;48.130;8.378;2023-02-21T03:42:36;93141.47;;;0.31;63.93
52249;BME280;38541;48.130;8.378;2023-02-21T03:45:04;93132.47;;;0.26;64.70
52249;BME280;38541;48.130;8.378;2023-02-21T03:47:31;93138.28;;;0.28;64.65
52249;BME280;38541;48.130;8.378;2023-02-21T03:49:57;93135.06;;;0.26;63.42
52249;BME280;38541;48.130;8.378;2023-02-21T03:52:24;93131.88;;;0.24;64.25
52249;BME280;38541;48.130;8.378;2023-02-21T03:54:51;93134.22;;;0.19;64.25
52249;BME280;38541;48.130;8.378;2023-02-21T03:57:19;93138.56;;;0.19;64.11
52249;BME280;38541;48.130;8.378;2023-02-21T03:59:48;93142.34;;;0.16;64.17
52249;BME280;38541;48.130;8.378;2023-02-21T04:02:15;93145.72;;;0.17;64.82
52249;BME280;38541;48.130;8.378;2023-02-21T04:04:41;93145.69;;;0.10;64.44
52249;BME280;38541;48.130;8.378;2023-02-21T04:07:15;93145.69;;;0.10;64.91
52249;BME280;38541;48.130;8.378;2023-02-21T04:09:43;93148.47;;;0.08;64.62
52249;BME280;38541;48.130;8.378;2023-02-21T04:12:14;93143.72;;;0.12;64.95
52249;BME280;38541;48.130;8.378;2023-02-21T04:14:41;93146.72;;;0.16;64.97
52249;BME280;38541;48.130;8.378;2023-02-21T04:17:07;93146.91;;;0.14;64.94
52249;BME280;38541;48.130;8.378;2023-02-21T04:19:34;93154.28;;;0.17;65.23
52249;BME280;38541;48.130;8.378;2023-02-21T04:22:02;93149.91;;;0.18;65.03
52249;BME280;38541;48.130;8.378;2023-02-21T04:24:30;93149.91;;;0.18;65.25
52249;BME280;38541;48.130;8.378;2023-02-21T04:26:56;93144.72;;;0.11;65.07
52249;BME280;38541;48.130;8.378;2023-02-21T04:29:24;93149.88;;;0.11;64.89
52249;BME280;38541;48.130;8.378;2023-02-21T04:31:51;93146.47;;;0.10;65.13
52249;BME280;38541;48.130;8.378;2023-02-21T04:34:17;93149.88;;;0.11;64.39
52249;BME280;38541;48.130;8.378;2023-02-21T04:36:45;93146.47;;;0.10;64.37
52249;BME280;38541;48.130;8.378;2023-02-21T04:39:12;93145.69;;;0.10;65.04
52249;BME280;38541;48.130;8.378;2023-02-21T04:41:38;93146.66;;;0.09;65.04
52249;BME280;38541;48.130;8.378;2023-02-21T04:44:05;93143.13;;;0.10;65.75
52249;BME280;38541;48.130;8.378;2023-02-21T04:46:32;93137.56;;;0.13;65.66
52249;BME280;38541;48.130;8.378;2023-02-21T04:49:00;93138.97;;;0.16;66.24
52249;BME280;38541;48.130;8.378;2023-02-21T04:51:26;93138.19;;;0.15;65.80
52249;BME280;38541;48.130;8.378;2023-02-21T04:53:53;93140.56;;;0.17;65.95
52249;BME280;38541;48.130;8.378;2023-02-21T04:56:23;93138.19;;;0.15;65.85
52249;BME280;38541;48.130;8.378;2023-02-21T04:58:50;93135.38;;;0.17;65.79
52249;BME280;38541;48.130;8.378;2023-02-21T05:01:18;93135.59;;;0.15;65.93
52249;BME280;38541;48.130;8.378;2023-02-21T05:03:46;93132.03;;;0.16;65.72
52249;BME280;38541;48.130;8.378;2023-02-21T05:06:18;93130.19;;;0.10;65.44
52249;BME280;38541;48.130;8.378;2023-02-21T05:08:45;93129.75;;;0.06;66.03
52249;BME280;38541;48.130;8.378;2023-02-21T05:11:12;93134.69;;;0.01;66.34
52249;BME280;38541;48.130;8.378;2023-02-21T05:13:39;93122.34;;;-0.04;66.07
52249;BME280;38541;48.130;8.378;2023-02-21T05:16:05;93125.91;;;-0.05;66.35
52249;BME280;38541;48.130;8.378;2023-02-21T05:18:32;93125.09;;;-0.05;65.85
52249;BME280;38541;48.130;8.378;2023-02-21T05:20:59;93124.72;;;-0.02;65.78
52249;BME280;38541;48.130;8.378;2023-02-21T05:23:28;93125.31;;;-0.07;66.29
52249;BME280;38541;48.130;8.378;2023-02-21T05:26:06;93126.09;;;-0.06;66.04
52249;BME280;38541;48.130;8.378;2023-02-21T05:28:33;93128.28;;;-0.03;66.88
52249;BME280;38541;48.130;8.378;2023-02-21T05:30:59;93125.53;;;-0.02;66.75
52249;BME280;38541;48.130;8.378;2023-02-21T05:33:26;93128.16;;;0.05;66.70
52249;BME280;38541;48.130;8.378;2023-02-21T05:35:55;93133.34;;;0.05;66.72
52249;BME280;38541;48.130;8.378;2023-02-21T05:38:23;93134.94;;;0.06;66.87
52249;BME280;38541;48.130;8.378;2023-02-21T05:40:50;93137.28;;;0.01;67.10
52249;BME280;38541;48.130;8.378;2023-02-21T05:43:17;93128.28;;;-0.03;67.02
52249;BME280;38541;48.130;8.378;2023-02-21T05:45:43;93134.25;;;-0.03;67.20
52249;BME280;38541;48.130;8.378;2023-02-21T05:48:10;93135.88;;;-0.02;66.58
52249;BME280;38541;48.130;8.378;2023-02-21T05:50:37;93138.56;;;-0.10;66.79
52249;BME280;38541;48.130;8.378;2023-02-21T05:53:05;93133.59;;;-0.11;66.96
52249;BME280;38541;48.130;8.378;2023-02-21T05:55:31;93130.22;;;-0.12;67.10
52249;BME280;38541;48.130;8.378;2023-02-21T05:57:58;93131.44;;;-0.08;67.11
52249;BME280;38541;48.130;8.378;2023-02-21T06:00:27;93131.63;;;-0.09;67.23
52249;BME280;38541;48.130;8.378;2023-02-21T06:02:54;93131.41;;;-0.15;66.88
52249;BME280;38541;48.130;8.378;2023-02-21T06:05:21;93128.81;;;-0.15;66.95
52249;BME280;38541;48.130;8.378;2023-02-21T06:07:48;93124.69;;;-0.09;67.22
52249;BME280;38541;48.130;8.378;2023-02-21T06:10:16;93126.63;;;-0.11;66.94
52249;BME280;38541;48.130;8.378;2023-02-21T06:12:42;93124.44;;;-0.14;67.90
52249;BME280;38541;48.130;8.378;2023-02-21T06:15:09;93125.41;;;-0.15;67.68
52249;BME280;38541;48.130;8.378;2023-02-21T06:17:38;93124.81;;;-0.17;67.72
52249;BME280;38541;48.130;8.378;2023-02-21T06:20:07;93133.41;;;-0.10;68.69
52249;BME280;38541;48.130;8.378;2023-02-21T06:22:35;93132.78;;;-0.12;68.04
52249;BME280;38541;48.130;8.378;2023-02-21T06:25:02;93138.56;;;-0.10;68.95
52249;BME280;38541;48.130;8.378;2023-02-21T06:27:29;93127.31;;;-0.02;68.69
52249;BME280;38541;48.130;8.378;2023-02-21T06:29:55;93123.88;;;-0.09;68.02
52249;BME280;38541;48.130;8.378;2023-02-21T06:32:21;93133.00;;;-0.13;68.21
52249;BME280;38541;48.130;8.378;2023-02-21T06:34:48;93132.94;;;-0.20;68.15
52249;BME280;38541;48.130;8.378;2023-02-21T06:37:17;93139.09;;;-0.21;68.17
52249;BME280;38541;48.130;8.378;2023-02-21T06:39:43;93138.47;;;-0.23;68.85
52249;BME280;38541;48.130;8.378;2023-02-21T06:42:13;93138.47;;;-0.23;68.51
52249;BME280;38541;48.130;8.378;2023-02-21T06:44:44;93141.66;;;-0.21;68.53
52249;BME280;38541;48.130;8.378;2023-02-21T06:47:11;93142.09;;;-0.18;68.48
52249;BME280;38541;48.130;8.378;2023-02-21T06:49:38;93147.44;;;-0.19;68.13
52249;BME280;38541;48.130;8.378;2023-02-21T06:52:05;93148.41;;;-0.20;68.45
52249;BME280;38541;48.130;8.378;2023-02-21T06:54:32;93148.03;;;-0.17;68.54
52249;BME280;38541;48.130;8.378;2023-02-21T06:56:59;93146.69;;;-0.13;68.14
52249;BME280;38541;48.130;8.378;2023-02-21T06:59:27;93148.88;;;-0.10;67.89
52249;BME280;38541;48.130;8.378;2023-02-21T07:01:55;93151.75;;;-0.05;68.06
52249;BME280;38541;48.130;8.378;2023-02-21T07:04:22;93152.34;;;-0.03;68.09
52249;BME280;38541;48.130;8.378;2023-02-21T07:06:50;93149.38;;;0.01;68.61
52249;BME280;38541;48.130;8.378;2023-02-21T07:09:17;93146.63;;;0.02;68.39
52249;BME280;38541;48.130;8.378;2023-02-21T07:11:43;93147.47;;;0.09;67.72
52249;BME280;38541;48.130;8.378;2023-02-21T07:14:12;93150.50;;;0.13;68.81
52249;BME280;38541;48.130;8.378;2023-02-21T07:16:39;93154.06;;;0.19;68.80
52249;BME280;38541;48.130;8.378;2023-02-21T07:19:05;93152.53;;;0.24;68.42
52249;BME280;38541;48.130;8.378;2023-02-21T07:21:32;93154.56;;;0.29;68.38
52249;BME280;38541;48.130;8.378;2023-02-21T07:23:58;93143.66;;;0.34;68.31
52249;BME280;38541;48.130;8.378;2023-02-21T07:26:25;93150.06;;;0.38;67.92
52249;BME280;38541;48.130;8.378;2023-02-21T07:28:51;93152.47;;;0.39;68.67
52249;BME280;38541;48.130;8.378;2023-02-21T07:31:18;93150.53;;;0.48;67.91
52249;BME280;38541;48.130;8.378;2023-02-21T07:33:46;93153.13;;;0.55;68.82
52249;BME280;38541;48.130;8.378;2023-02-21T07:36:12;93141.06;;;0.62;68.34
52249;BME280;38541;48.130;8.378;2023-02-21T07:38:39;93145.06;;;0.71;67.69
52249;BME280;38541;48.130;8.378;2023-02-21T07:41:05;93147.91;;;0.77;68.14
52249;BME280;38541;48.130;8.378;2023-02-21T07:43:32;93150.91;;;0.87;67.58
52249;BME280;38541;48.130;8.378;2023-02-21T07:45:58;93144.38;;;0.91;67.42
52249;BME280;38541;48.130;8.378;2023-02-21T07:48:25;93139.22;;;0.98;67.30
52249;BME280;38541;48.130;8.378;2023-02-21T07:50:51;93139.47;;;1.10;67.51
52249;BME280;38541;48.130;8.378;2023-02-21T07:53:18;93136.53;;;1.20;67.08
52249;BME280;38541;48.130;8.378;2023-02-21T07:55:44;93133.56;;;1.30;67.37
52249;BME280;38541;48.130;8.378;2023-02-21T07:58:11;93137.38;;;1.40;66.66
52249;BME280;38541;48.130;8.378;2023-02-21T08:00:38;93138.22;;;1.54;66.25
52249;BME280;38541;48.130;8.378;2023-02-21T08:03:06;93133.03;;;1.68;66.39
52249;BME280;38541;48.130;8.378;2023-02-21T08:05:32;93131.66;;;1.79;66.43
52249;BME280;38541;48.130;8.378;2023-02-21T08:07:59;93136.44;;;1.89;66.64
52249;BME280;38541;48.130;8.378;2023-02-21T08:10:26;93132.28;;;1.94;66.65
52249;BME280;38541;48.130;8.378;2023-02-21T08:12:53;93133.88;;;2.02;66.29
52249;BME280;38541;48.130;8.378;2023-02-21T08:15:20;93131.88;;;2.11;65.67
52249;BME280;38541;48.130;8.378;2023-02-21T08:17:48;93127.28;;;2.20;65.61
52249;BME280;38541;48.130;8.378;2023-02-21T08:20:15;93131.06;;;2.31;65.44
52249;BME280;38541;48.130;8.378;2023-02-21T08:22:41;93126.28;;;2.41;64.93
52249;BME280;38541;48.130;8.378;2023-02-21T08:25:10;93130.25;;;2.50;64.92
52249;BME280;38541;48.130;8.378;2023-02-21T08:27:40;93123.44;;;2.63;64.37
52249;BME280;38541;48.130;8.378;2023-02-21T08:30:08;93124.03;;;2.78;64.58
52249;BME280;38541;48.130;8.378;2023-02-21T08:32:35;93130.56;;;2.94;63.61
52249;BME280;38541;48.130;8.378;2023-02-21T08:35:03;93129.69;;;3.07;63.71
52249;BME280;38541;48.130;8.378;2023-02-21T08:37:32;93121.28;;;3.19;63.84
52249;BME280;38541;48.130;8.378;2023-02-21T08:40:03;93122.63;;;3.28;64.79
52249;BME280;38541;48.130;8.378;2023-02-21T08:42:30;93124.00;;;3.37;65.07
52249;BME280;38541;48.130;8.378;2023-02-21T08:44:56;93122.72;;;3.47;64.80
52249;BME280;38541;48.130;8.378;2023-02-21T08:47:23;93117.47;;;3.60;64.10
52249;BME280;38541;48.130;8.378;2023-02-21T08:49:49;93115.22;;;3.70;64.01
52249;BME280;38541;48.130;8.378;2023-02-21T08:52:18;93111.50;;;3.85;63.28
52249;BME280;38541;48.130;8.378;2023-02-21T08:54:44;93120.41;;;3.96;63.31
52249;BME280;38541;48.130;8.378;2023-02-21T08:57:12;93120.31;;;4.09;63.43
52249;BME280;38541;48.130;8.378;2023-02-21T08:59:39;93116.25;;;4.20;62.58
52249;BME280;38541;48.130;8.378;2023-02-21T09:02:21;93121.09;;;4.35;61.66
52249;BME280;38541;48.130;8.378;2023-02-21T09:04:51;93114.56;;;4.51;61.65
52249;BME280;38541;48.130;8.378;2023-02-21T09:07:20;93114.84;;;4.62;60.41
52249;BME280;38541;48.130;8.378;2023-02-21T09:09:47;93102.53;;;4.76;59.96
52249;BME280;38541;48.130;8.378;2023-02-21T09:12:13;93105.19;;;4.88;59.31
52249;BME280;38541;48.130;8.378;2023-02-21T09:14:41;93103.81;;;5.04;59.77
52249;BME280;38541;48.130;8.378;2023-02-21T09:17:11;93090.06;;;5.15;60.53
52249;BME280;38541;48.130;8.378;2023-02-21T09:19:38;93089.09;;;5.28;60.82
52249;BME280;38541;48.130;8.378;2023-02-21T09:22:07;93086.31;;;5.41;61.25
52249;BME280;38541;48.130;8.378;2023-02-21T09:24:34;93089.53;;;5.55;61.65
52249;BME280;38541;48.130;8.378;2023-02-21T09:27:00;93092.28;;;5.72;62.03
52249;BME280;38541;48.130;8.378;2023-02-21T09:29:32;93085.31;;;5.85;61.59
52249;BME280;38541;48.130;8.378;2023-02-21T09:32:12;93082.66;;;6.04;61.29
52249;BME280;38541;48.130;8.378;2023-02-21T09:34:38;93079.03;;;6.17;61.17
52249;BME280;38541;48.130;8.378;2023-02-21T09:37:05;93082.00;;;6.32;61.33
52249;BME280;38541;48.130;8.378;2023-02-21T09:39:32;93076.88;;;6.49;61.69
52249;BME280;38541;48.130;8.378;2023-02-21T09:41:58;93078.56;;;6.67;61.33
52249;BME280;38541;48.130;8.378;2023-02-21T09:44:26;93083.97;;;6.90;58.84
52249;BME280;38541;48.130;8.378;2023-02-21T09:46:58;93082.56;;;7.11;55.15
52249;BME280;38541;48.130;8.378;2023-02-21T09:49:28;93077.59;;;7.38;54.65
52249;BME280;38541;48.130;8.378;2023-02-21T09:51:56;93066.88;;;7.69;51.55
52249;BME280;38541;48.130;8.378;2023-02-21T09:54:27;93071.19;;;7.92;50.12
52249;BME280;38541;48.130;8.378;2023-02-21T09:56:57;93073.31;;;8.12;50.39
52249;BME280;38541;48.130;8.378;2023-02-21T09:59:25;93068.66;;;8.32;48.67
52249;BME280;38541;48.130;8.378;2023-02-21T10:04:30;93061.94;;;8.75;49.13
52249;BME280;38541;48.130;8.378;2023-02-21T10:07:17;93063.78;;;8.97;48.07
52249;BME280;38541;48.130;8.378;2023-02-21T10:09:58;93054.88;;;9.20;47.33
52249;BME280;38541;48.130;8.378;2023-02-21T10:12:39;93056.44;;;9.44;46.16
52249;BME280;38541;48.130;8.378;2023-02-21T10:20:57;93055.00;;;10.18;45.16
52249;BME280;38541;48.130;8.378;2023-02-21T10:26:04;93056.88;;;10.61;45.08
52249;BME280;38541;48.130;8.378;2023-02-21T10:28:35;93055.69;;;10.84;44.33
52249;BME280;38541;48.130;8.378;2023-02-21T10:31:14;93048.69;;;11.05;42.32
52249;BME280;38541;48.130;8.378;2023-02-21T10:33:43;93054.28;;;11.24;41.73
52249;BME280;38541;48.130;8.378;2023-02-21T10:36:12;93050.91;;;11.39;41.34
52249;BME280;38541;48.130;8.378;2023-02-21T10:38:42;93051.47;;;11.57;41.84
52249;BME280;38541;48.130;8.378;2023-02-21T10:41:11;93049.66;;;11.73;40.83
52249;BME280;38541;48.130;8.378;2023-02-21T10:43:51;93048.09;;;11.93;40.12
52249;BME280;38541;48.130;8.378;2023-02-21T10:46:30;93050.78;;;12.08;39.38
52249;BME280;38541;48.130;8.378;2023-02-21T10:51:44;93047.34;;;12.39;38.47
52249;BME280;38541;48.130;8.378;2023-02-21T10:54:20;93038.13;;;12.52;37.87
52249;BME280;38541;48.130;8.378;2023-02-21T10:56:48;93040.47;;;12.64;37.44
52249;BME280;38541;48.130;8.378;2023-02-21T10:59:28;93039.09;;;12.77;37.65
52249;BME280;38541;48.130;8.378;2023-02-21T11:01:56;93034.56;;;12.93;37.83
52249;BME280;38541;48.130;8.378;2023-02-21T11:07:17;93026.31;;;13.15;37.45
52249;BME280;38541;48.130;8.378;2023-02-21T11:09:45;93024.97;;;13.23;35.53
52249;BME280;38541;48.130;8.378;2023-02-21T11:14:42;93017.22;;;13.42;35.11
52249;BME280;38541;48.130;8.378;2023-02-21T11:19:50;93015.00;;;13.65;35.74
52249;BME280;38541;48.130;8.378;2023-02-21T11:22:40;93005.38;;;13.79;35.10
52249;BME280;38541;48.130;8.378;2023-02-21T11:25:21;93002.41;;;13.91;34.68
52249;BME280;38541;48.130;8.378;2023-02-21T11:28:01;92994.91;;;14.04;34.54
52249;BME280;38541;48.130;8.378;2023-02-21T11:30:31;92994.34;;;14.12;33.36
52249;BME280;38541;48.130;8.378;2023-02-21T11:32:59;92984.72;;;14.21;33.74
52249;BME280;38541;48.130;8.378;2023-02-21T11:35:30;92984.34;;;14.33;33.20
52249;BME280;38541;48.130;8.378;2023-02-21T11:38:01;92980.31;;;14.41;31.64
52249;BME280;38541;48.130;8.378;2023-02-21T11:40:48;92977.59;;;14.51;33.12
52249;BME280;38541;48.130;8.378;2023-02-21T11:46:14;92978.06;;;14.83;34.74
52249;BME280;38541;48.130;8.378;2023-02-21T11:48:48;92971.63;;;14.89;32.54
52249;BME280;38541;48.130;8.378;2023-02-21T11:51:31;92966.72;;;15.02;32.83
52249;BME280;38541;48.130;8.378;2023-02-21T11:53:58;92967.97;;;15.09;32.59
52249;BME280;38541;48.130;8.378;2023-02-21T11:56:31;92961.94;;;15.23;32.73
52249;BME280;38541;48.130;8.378;2023-02-21T11:59:24;92958.03;;;15.39;33.09
52249;BME280;38541;48.130;8.378;2023-02-21T12:03:07;92951.94;;;15.58;32.64
52249;BME280;38541;48.130;8.378;2023-02-21T12:11:14;92931.44;;;15.83;30.98
52249;BME280;38541;48.130;8.378;2023-02-21T12:22:02;92921.47;;;16.55;31.18
52249;BME280;38541;48.130;8.378;2023-02-21T12:24:55;92912.41;;;16.70;28.88
52249;BME280;38541;48.130;8.378;2023-02-21T12:27:36;92914.47;;;16.73;29.16
52249;BME280;38541;48.130;8.378;2023-02-21T12:30:24;92913.97;;;16.85;27.69
52249;BME280;38541;48.130;8.378;2023-02-21T12:33:33;92908.97;;;16.83;26.39
52249;BME280;38541;48.130;8.378;2023-02-21T12:42:12;92897.88;;;17.32;27.80
52249;BME280;38541;48.130;8.378;2023-02-21T12:44:59;92887.53;;;17.45;29.38
52249;BME280;38541;48.130;8.378;2023-02-21T12:47:33;92884.69;;;17.64;29.23
52249;BME280;38541;48.130;8.378;2023-02-21T12:52:59;92874.00;;;17.78;26.68
52249;BME280;38541;48.130;8.378;2023-02-21T12:55:38;92864.19;;;17.87;27.52
52249;BME280;38541;48.130;8.378;2023-02-21T12:58:22;92870.16;;;17.93;27.45
52249;BME280;38541;48.130;8.378;2023-02-21T13:01:01;92862.03;;;18.12;29.31
52249;BME280;38541;48.130;8.378;2023-02-21T13:03:44;92863.16;;;18.20;28.58
52249;BME280;38541;48.130;8.378;2023-02-21T13:06:20;92858.34;;;18.31;28.43
52249;BME280;38541;48.130;8.378;2023-02-21T13:09:07;92861.72;;;18.22;26.45
52249;BME280;38541;48.130;8.378;2023-02-21T13:11:59;92856.78;;;18.30;27.32
52249;BME280;38541;48.130;8.378;2023-02-21T13:14:40;92850.53;;;18.43;27.46
52249;BME280;38541;48.130;8.378;2023-02-21T13:17:14;92840.25;;;18.50;28.23
52249;BME280;38541;48.130;8.378;2023-02-21T13:19:47;92838.38;;;18.60;27.52
52249;BME280;38541;48.130;8.378;2023-02-21T13:22:33;92838.13;;;18.88;28.50
52249;BME280;38541;48.130;8.378;2023-02-21T13:32:58;92834.56;;;19.19;29.08
52249;BME280;38541;48.130;8.378;2023-02-21T13:35:35;92822.22;;;19.14;26.64
52249;BME280;38541;48.130;8.378;2023-02-21T13:38:05;92822.03;;;19.10;26.85
52249;BME280;38541;48.130;8.378;2023-02-21T13:40:41;92817.50;;;19.29;26.90
52249;BME280;38541;48.130;8.378;2023-02-21T13:43:21;92815.28;;;19.31;26.29
52249;BME280;38541;48.130;8.378;2023-02-21T13:45:48;92818.44;;;19.24;28.58
52249;BME280;38541;48.130;8.378;2023-02-21T13:48:26;92818.09;;;19.43;26.48
52249;BME280;38541;48.130;8.378;2023-02-21T13:50:55;92802.75;;;19.49;26.54
52249;BME280;38541;48.130;8.378;2023-02-21T13:53:27;92806.47;;;19.65;25.13
52249;BME280;38541;48.130;8.378;2023-02-21T14:03:56;92790.56;;;19.87;26.11
52249;BME280;38541;48.130;8.378;2023-02-21T14:06:32;92790.72;;;19.99;24.72
52249;BME280;38541;48.130;8.378;2023-02-21T14:09:10;92786.75;;;20.05;25.61
52249;BME280;38541;48.130;8.378;2023-02-21T14:11:44;92783.63;;;20.03;24.51
52249;BME280;38541;48.130;8.378;2023-02-21T14:14:25;92777.16;;;20.13;24.28
52249;BME280;38541;48.130;8.378;2023-02-21T14:17:13;92772.91;;;20.21;23.44
52249;BME280;38541;48.130;8.378;2023-02-21T14:22:23;92770.34;;;20.33;23.39
52249;BME280;38541;48.130;8.378;2023-02-21T14:25:06;92765.38;;;21.17;23.62
52249;BME280;38541;48.130;8.378;2023-02-21T14:27:36;92765.03;;;22.73;21.48
52249;BME280;38541;48.130;8.378;2023-02-21T14:32:44;92752.59;;;22.52;21.11
52249;BME280;38541;48.130;8.378;2023-02-21T14:35:32;92749.31;;;23.85;19.77
52249;BME280;38541;48.130;8.378;2023-02-21T14:38:11;92750.16;;;24.54;19.39
52249;BME280;38541;48.130;8.378;2023-02-21T14:43:52;92749.16;;;23.33;21.23
52249;BME280;38541;48.130;8.378;2023-02-21T14:46:52;92747.78;;;23.84;20.80
52249;BME280;38541;48.130;8.378;2023-02-21T14:55:24;92741.50;;;28.65;16.05
52249;BME280;38541;48.130;8.378;2023-02-21T14:58:16;92740.50;;;30.23;14.61
52249;BME280;38541;48.130;8.378;2023-02-21T15:01:19;92728.91;;;30.08;15.12
52249;BME280;38541;48.130;8.378;2023-02-21T15:04:00;92732.38;;;27.86;15.73
52249;BME280;38541;48.130;8.378;2023-02-21T15:06:28;92724.50;;;26.44;16.29
52249;BME280;38541;48.130;8.378;2023-02-21T15:08:57;92722.03;;;25.62;18.15
52249;BME280;38541;48.130;8.378;2023-02-21T15:11:34;92724.06;;;25.29;18.77
52249;BME280;38541;48.130;8.378;2023-02-21T15:14:22;92720.13;;;25.03;18.70
52249;BME280;38541;48.130;8.378;2023-02-21T15:16:58;92722.31;;;24.42;19.17
52249;BME280;38541;48.130;8.378;2023-02-21T15:19:31;92720.41;;;24.27;19.78
52249;BME280;38541;48.130;8.378;2023-02-21T15:22:24;92717.56;;;24.19;20.57
52249;BME280;38541;48.130;8.378;2023-02-21T15:27:34;92705.19;;;22.52;21.85
52249;BME280;38541;48.130;8.378;2023-02-21T15:30:07;92707.19;;;22.06;23.27
52249;BME280;38541;48.130;8.378;2023-02-21T15:32:35;92707.88;;;21.90;23.11